Time;durP1;ratioP1;P1;durP2;ratioP2;P2;SDS_P1;SDS_P2;PMS_P1;PMS_P2;Temp;Humidity;BMP_temperature;BMP_pressure;BME280_temperature;BME280_humidity;BME280_pressure;Samples;Min_cycle;Max_cycle;Signal;HPM_P1;HPM_P2
2023/06/14 05:01:05;;;;;;;;;18.00;16.33;;;;;22.23;53.68;9978.50;5722710;22;46457;-87
2023/06/14 05:03:31;;;;;;;;;24.33;18.67;;;;;22.46;53.83;9983.41;5023732;28;45580;-88
2023/06/14 05:05:56;;;;;;;;;2142.00;2142.00;;;;;22.34;54.31;8961.81;5018104;28;45470;-87
2023/06/14 05:08:25;;;;;;;;;20.00;20.00;;;;;22.37;53.77;10321.09;5025405;28;46101;-87
2023/06/14 05:10:51;;;;;;;;;18.67;17.33;;;;;22.54;54.00;10324.91;5023664;28;45746;-84
2023/06/14 05:13:17;;;;;;;;;24.33;24.33;;;;;22.53;54.45;9305.31;5030158;28;45579;-87
2023/06/14 05:15:42;;;;;;;;;21.00;19.67;;;;;22.42;54.30;9303.03;5026489;28;45446;-89
2023/06/14 05:18:09;;;;;;;;;21.33;19.67;;;;;22.53;53.80;8625.69;5021778;28;46032;-88
2023/06/14 05:20:36;;;;;;;;;22.33;21.00;;;;;22.59;54.06;8966.63;5025905;28;45470;-87
2023/06/14 05:23:02;;;;;;;;;26.67;25.33;;;;;22.58;53.33;9645.94;5020123;28;45375;-87
2023/06/14 05:25:28;;;;;;;;;24.67;23.00;;;;;22.62;53.50;9307.06;5029393;28;45582;-85
2023/06/14 05:27:53;;;;;;;;;23.33;19.67;;;;;22.74;54.30;8629.81;5028627;28;46273;-93
2023/06/14 05:30:18;;;;;;;;;23.00;21.00;;;;;22.70;54.31;8628.94;5032703;28;45579;-94
2023/06/14 05:32:44;;;;;;;;;23.67;18.67;;;;;22.84;53.54;8291.72;5024657;28;45571;-95
2023/06/14 05:35:10;;;;;;;;;14.00;14.00;;;;;22.79;53.75;8630.69;5029426;28;45714;-94
2023/06/14 05:37:35;;;;;;;;;24.67;23.33;;;;;22.96;53.47;9313.91;5022692;28;45955;-94
2023/06/14 05:40:04;;;;;;;;;23.67;21.33;;;;;23.01;53.23;8974.91;5036608;28;45384;-94
2023/06/14 05:42:29;;;;;;;;;28.33;24.67;;;;;23.05;52.73;10335.97;5036617;28;45399;-94
2023/06/14 05:44:55;;;;;;;;;20.33;19.33;;;;;23.09;52.83;10677.06;5034799;28;45411;-94
2023/06/14 05:47:20;;;;;;;;;23.00;23.00;;;;;23.10;53.19;10677.41;5024081;28;46164;-95
2023/06/14 05:49:46;;;;;;;;;22.33;20.00;;;;;22.95;52.71;10673.94;5029523;28;45421;-94
2023/06/14 05:52:12;;;;;;;;;27.33;23.67;;;;;23.10;52.73;10677.41;5025012;28;45389;-95
2023/06/14 05:54:38;;;;;;;;;25.67;22.33;;;;;23.12;52.85;10677.75;5021000;28;45541;-96
2023/06/14 05:57:05;;;;;;;;;21.00;21.00;;;;;23.05;52.49;11356.66;5033887;28;45494;-96
2023/06/14 05:59:31;;;;;;;;;25.67;20.67;;;;;22.86;52.31;12032.44;5030482;28;45581;-96
2023/06/14 06:01:56;;;;;;;;;26.33;25.00;;;;;23.35;52.21;12385.00;5033365;28;45438;-95
2023/06/14 06:04:23;;;;;;;;;26.00;21.33;;;;;23.09;51.72;12718.94;5031778;28;45578;-96
2023/06/14 06:06:48;;;;;;;;;28.33;26.67;;;;;23.24;51.60;12722.72;5016393;28;47219;-96
2023/06/14 06:09:16;;;;;;;;;22.67;22.00;;;;;23.54;51.42;13071.13;5028719;28;45391;-95
2023/06/14 06:11:42;;;;;;;;;28.67;25.00;;;;;23.43;51.27;13408.66;5030787;28;45304;-93
2023/06/14 06:14:07;;;;;;;;;22.00;21.00;;;;;23.64;51.31;14777.59;5022165;28;45285;-95
2023/06/14 06:16:33;;;;;;;;;1418.33;1417.33;;;;;23.69;51.00;15801.88;5028491;28;46030;-95
2023/06/14 06:18:59;;;;;;;;;29.00;25.33;;;;;23.74;50.05;16826.59;4935718;28;45403;-94
2023/06/14 06:21:24;;;;;;;;;922.40;920.00;;;;;23.71;49.77;17848.97;4927860;28;45511;-96
2023/06/14 06:23:49;;;;;;;;;25.33;22.33;;;;;23.86;49.93;17512.78;4924752;28;45733;-94
2023/06/14 06:26:15;;;;;;;;;20.67;20.67;;;;;23.75;49.62;19215.19;4930553;28;46162;-95
2023/06/14 06:28:40;;;;;;;;;19.00;18.00;;;;;23.99;49.38;19565.50;4923300;28;45477;-95
2023/06/14 06:31:06;;;;;;;;;1632.33;1632.33;;;;;23.94;48.49;22295.91;4929833;28;45701;-95
2023/06/14 06:33:35;;;;;;;;;20.67;16.67;;;;;24.02;48.52;24008.47;4936775;28;45566;-95
2023/06/14 06:36:00;;;;;;;;;21.33;20.67;;;;;24.00;48.24;26401.38;4940278;28;46280;-94
2023/06/14 06:38:25;;;;;;;;;17.67;17.33;;;;;24.28;46.90;31998.38;4937991;28;45338;-96
2023/06/14 06:40:51;;;;;;;;;17.67;16.00;;;;;24.01;45.65;37663.97;4933049;28;45536;-93
2023/06/14 06:43:17;;;;;;;;;24.67;22.33;;;;;24.39;45.00;40902.91;4927588;28;45593;-90
2023/06/14 06:45:43;;;;;;;;;18.67;17.67;;;;;24.13;44.58;43006.84;4921942;28;46356;-90
2023/06/14 06:48:10;;;;;;;;;13.67;13.67;;;;;24.28;43.99;44572.72;4935060;28;45769;-90
2023/06/14 06:50:35;;;;;;;;;18.33;15.67;;;;;24.41;44.15;46574.59;4928301;28;45972;-91
2023/06/14 06:53:01;;;;;;;;;17.00;14.33;;;;;24.61;43.73;46918.19;4917857;28;45619;-94
2023/06/14 06:55:26;;;;;;;;;15.33;14.67;;;;;24.70;43.86;47183.34;4935947;28;46510;-92
2023/06/14 06:57:53;;;;;;;;;20.00;16.00;;;;;24.76;44.77;45618.16;4934845;28;45559;-91
2023/06/14 07:00:19;;;;;;;;;22.00;19.67;;;;;24.62;43.69;48444.41;4928909;28;45819;-91
2023/06/14 07:02:45;;;;;;;;;16.67;15.00;;;;;24.67;42.73;50205.41;4936225;28;45419;-95
2023/06/14 07:05:11;;;;;;;;;16.33;16.33;;;;;24.94;42.51;51621.00;4929371;28;46115;-96
2023/06/14 07:07:36;;;;;;;;;17.67;16.33;;;;;25.01;42.96;51929.03;4926184;28;45412;-93
2023/06/14 07:10:04;;;;;;;;;14.00;14.00;;;;;25.08;41.24;55131.84;4950694;28;45387;-93
2023/06/14 07:12:31;;;;;;;;;15.67;14.00;;;;;25.04;40.18;57666.69;4929186;28;45810;-95
2023/06/14 07:14:57;;;;;;;;;16.33;14.00;;;;;25.14;40.17;58439.94;4935081;28;47348;-94
2023/06/14 07:17:22;;;;;;;;;17.33;15.33;;;;;25.05;40.50;58803.81;4981156;28;45490;-96
2023/06/14 07:19:48;;;;;;;;;14.33;13.33;;;;;24.97;39.98;59065.03;4941866;28;47071;-92
2023/06/14 07:22:13;;;;;;;;;15.33;15.33;;;;;25.05;41.25;58485.34;4933575;28;45434;-94
2023/06/14 07:24:40;;;;;;;;;15.33;15.33;;;;;25.38;41.44;58409.22;4935664;28;46734;-95
2023/06/14 07:27:05;;;;;;;;;15.67;15.67;;;;;25.39;40.56;58745.56;4937951;28;46746;-94
2023/06/14 07:29:31;;;;;;;;;13.33;12.00;;;;;25.55;40.84;58949.91;4935050;28;45502;-94
2023/06/14 07:31:56;;;;;;;;;18.00;17.33;;;;;25.56;39.65;60118.53;4929389;28;45567;-95
2023/06/14 07:34:21;;;;;;;;;15.67;15.67;;;;;25.68;39.19;60757.53;4935906;28;46302;-93
2023/06/14 07:36:47;;;;;;;;;14.00;14.00;;;;;25.76;39.67;60638.38;4941022;28;47532;-93
2023/06/14 07:39:12;;;;;;;;;17.67;14.00;;;;;25.61;39.68;60642.09;4933872;28;45490;-93
2023/06/14 07:41:38;;;;;;;;;17.33;15.00;;;;;25.68;39.47;61198.16;4937827;28;45498;-94
2023/06/14 07:44:03;;;;;;;;;15.67;15.33;;;;;25.96;38.87;61992.16;4933700;28;64864;-91
2023/06/14 07:46:28;;;;;;;;;18.00;16.67;;;;;25.99;38.32;62674.41;4933939;28;45606;-91
2023/06/14 07:48:54;;;;;;;;;17.33;15.67;;;;;25.84;38.44;62775.03;4930630;28;46147;-91
2023/06/14 07:51:19;;;;;;;;;14.33;14.33;;;;;26.05;38.82;62864.91;4940301;28;45467;-91
2023/06/14 07:53:45;;;;;;;;;16.33;15.33;;;;;26.12;38.78;62810.22;4950490;28;47135;-90
2023/06/14 07:56:11;;;;;;;;;15.33;12.67;;;;;26.20;38.36;63048.41;4931276;28;45589;-89
2023/06/14 07:58:37;;;;;;;;;20.67;16.00;;;;;26.16;36.70;64305.56;4933546;28;46033;-90
2023/06/14 08:01:06;;;;;;;;;14.33;14.33;;;;;26.33;36.83;64662.91;4928729;28;45558;-90
2023/06/14 08:03:31;;;;;;;;;16.67;14.00;;;;;26.14;36.44;65224.53;4929316;28;47132;-89
2023/06/14 08:05:57;;;;;;;;;14.00;13.00;;;;;26.50;36.24;65359.19;4930666;28;45376;-91
2023/06/14 08:08:22;;;;;;;;;17.67;13.67;;;;;26.47;36.50;65326.00;4938800;28;45518;-90
2023/06/14 08:10:48;;;;;;;;;14.67;14.00;;;;;26.66;36.33;65533.28;4942651;28;45686;-89
2023/06/14 08:13:13;;;;;;;;;10.33;10.33;;;;;26.72;35.87;65798.13;4954354;28;46038;-88
2023/06/14 08:15:39;;;;;;;;;13.67;13.67;;;;;26.68;36.37;65803.88;4946759;28;45513;-89
2023/06/14 08:18:06;;;;;;;;;16.33;13.00;;;;;26.88;36.49;65741.88;4929223;28;45753;-87
2023/06/14 08:20:32;;;;;;;;;13.33;11.67;;;;;26.99;35.77;66035.78;4928311;28;45535;-90
2023/06/14 08:22:58;;;;;;;;;16.00;15.00;;;;;27.07;34.70;66508.75;4924812;28;47538;-89
2023/06/14 08:25:23;;;;;;;;;14.67;12.00;;;;;26.32;35.51;66476.88;4942022;28;45740;-91
2023/06/14 08:27:49;;;;;;;;;1903.50;1903.50;;;;;26.61;34.84;66798.94;4923862;28;45546;-92
2023/06/14 08:30:38;;;;;;;;;17.33;15.00;;;;;26.49;35.03;66704.41;4932230;28;45523;-96
2023/06/14 08:33:04;;;;;;;;;12.67;12.67;;;;;27.16;34.72;66825.66;4953265;23;47051;-81
2023/06/14 08:35:29;;;;;;;;;15.00;15.00;;;;;27.51;34.43;67149.75;4934567;28;45565;-83
2023/06/14 08:37:55;;;;;;;;;700.00;698.00;;;;;27.50;33.93;67295.78;4938488;28;45830;-83
2023/06/14 08:40:22;;;;;;;;;17.00;13.67;;;;;27.64;34.57;67148.44;4919252;28;45574;-86
2023/06/14 08:42:52;;;;;;;;;15.33;11.67;;;;;28.02;33.76;67391.63;4924488;28;45481;-86
2023/06/14 08:45:18;;;;;;;;;12.33;11.00;;;;;27.77;33.61;67429.63;4924864;28;45568;-84
2023/06/14 08:47:45;;;;;;;;;18.00;14.67;;;;;27.85;33.69;67476.38;4935654;28;45969;-83
2023/06/14 08:50:11;;;;;;;;;10.00;10.00;;;;;28.04;33.00;67630.94;4920621;28;45894;-82
2023/06/14 08:52:45;;;;;;;;;13.33;12.00;;;;;28.35;33.42;67711.97;4927936;28;45604;-83
2023/06/14 08:55:11;;;;;;;;;12.33;12.33;;;;;28.94;32.70;67877.31;4915511;28;45481;-83
2023/06/14 08:57:38;;;;;;;;;12.33;12.33;;;;;28.99;33.07;67738.28;4932511;28;45528;-81
2023/06/14 09:00:11;;;;;;;;;14.00;14.00;;;;;29.37;32.30;67941.94;4937989;28;45410;-83
2023/06/14 09:02:37;;;;;;;;;13.67;13.67;;;;;29.50;32.31;68003.41;4911019;28;46118;-81
2023/06/14 09:05:03;;;;;;;;;15.00;14.33;;;;;29.24;32.25;68104.41;4926334;28;45704;-82
2023/06/14 09:07:29;;;;;;;;;13.00;11.00;;;;;29.80;31.63;68209.47;4923162;28;45789;-81
2023/06/14 09:10:12;;;;;;;;;12.67;12.00;;;;;30.06;31.00;68473.19;4931643;28;45511;-83
2023/06/14 09:12:39;;;;;;;;;14.00;13.00;;;;;30.27;30.61;68478.13;4933268;28;47434;-82
2023/06/14 09:15:06;;;;;;;;;13.50;12.00;;;;;;;;4943352;28;45508;-82
2023/06/14 09:17:38;;;;;;;;;17.33;14.67;;;;;30.49;30.36;68599.41;4908353;28;46102;-84
2023/06/14 09:20:18;;;;;;;;;12.67;12.67;;;;;30.72;29.95;68682.56;4926988;28;45436;-85
2023/06/14 09:22:44;;;;;;;;;13.33;12.00;;;;;31.01;29.94;68781.59;4914682;28;45586;-85
2023/06/14 09:25:10;;;;;;;;;11.33;11.33;;;;;31.26;28.34;68900.00;4930893;28;45457;-81
2023/06/14 09:27:39;;;;;;;;;13.00;12.67;;;;;31.52;29.19;68990.78;4921002;28;45850;-82
2023/06/14 09:30:06;;;;;;;;;19.33;15.00;;;;;31.78;29.35;68964.97;4942991;28;45572;-82
2023/06/14 09:32:45;;;;;;;;;58.25;45.75;;;;;32.27;29.32;68980.50;4936769;28;46241;-83
2023/06/14 09:35:10;;;;;;;;;13.67;13.67;;;;;32.82;28.43;68945.50;4937680;28;45484;-83
2023/06/14 09:37:38;;;;;;;;;15.33;13.00;;;;;33.47;27.52;68973.06;4924474;28;45806;-83
2023/06/14 09:40:04;;;;;;;;;16.00;13.67;;;;;33.52;26.95;69152.28;4906940;28;45921;-82
2023/06/14 09:42:30;;;;;;;;;12.67;12.67;;;;;33.88;25.47;69177.13;4929548;28;47066;-86
2023/06/14 09:44:57;;;;;;;;;14.00;11.00;;;;;34.87;24.60;69178.34;4934534;28;44933;-83
2023/06/14 09:47:23;;;;;;;;;13.67;12.33;;;;;36.49;23.33;68877.06;4933741;28;46679;-87
2023/06/14 09:49:54;;;;;;;;;12.00;10.33;;;;;37.37;21.84;68917.22;4932822;28;45772;-85
2023/06/14 09:52:21;;;;;;;;;10.00;10.00;;;;;37.20;21.70;68953.03;4935795;28;46190;-89
2023/06/14 09:54:48;;;;;;;;;13.00;10.33;;;;;37.42;20.80;68702.34;4928109;28;46487;-87
2023/06/14 09:57:15;;;;;;;;;9.33;9.33;;;;;37.70;20.50;68742.22;4927960;28;45539;-85
2023/06/14 09:59:46;;;;;;;;;9.00;9.00;;;;;37.55;20.49;68819.06;4925829;28;45655;-85
2023/06/14 10:02:37;;;;;;;;;8.00;8.00;;;;;37.68;20.70;68861.88;4933051;28;46648;-84
2023/06/14 10:05:08;;;;;;;;;8.67;8.67;;;;;37.57;19.50;68730.34;4937500;28;45896;-83
2023/06/14 10:07:44;;;;;;;;;11.00;8.67;;;;;37.47;19.37;68699.91;4931386;28;45408;-82
2023/06/14 10:10:10;;;;;;;;;8.33;8.33;;;;;38.18;19.32;68667.91;4934779;28;45570;-83
2023/06/14 10:12:36;;;;;;;;;10.00;9.00;;;;;38.84;19.15;68468.88;4935284;28;47096;-82
2023/06/14 10:15:02;;;;;;;;;10.00;10.00;;;;;39.29;18.28;68267.72;4933703;28;45415;-82
2023/06/14 10:17:48;;;;;;;;;8.33;8.33;;;;;39.56;18.30;68353.84;4935520;28;46010;-83
2023/06/14 10:20:32;;;;;;;;;11.00;11.00;;;;;39.93;17.56;68296.50;4940558;28;45813;-84
2023/06/14 10:23:08;;;;;;;;;12.00;10.33;;;;;40.08;17.13;68205.84;4933211;28;46058;-85
2023/06/14 10:25:34;;;;;;;;;9.33;9.33;;;;;39.92;16.75;68209.50;4931427;28;45729;-84
2023/06/14 10:28:04;;;;;;;;;10.00;10.00;;;;;40.13;16.75;68219.38;4935044;28;45566;-90
2023/06/14 10:30:29;;;;;;;;;9.00;9.00;;;;;40.07;17.05;68185.31;4927418;28;45463;-84
2023/06/14 10:33:21;;;;;;;;;10.00;9.33;;;;;40.23;17.75;68139.53;4902374;28;47696;-84
2023/06/14 10:35:47;;;;;;;;;10.67;10.00;;;;;40.36;17.75;68211.59;4929129;28;45506;-84
2023/06/14 10:38:12;;;;;;;;;9.67;9.00;;;;;40.13;17.67;68108.56;4940561;28;45577;-86
2023/06/14 10:40:39;;;;;;;;;9.00;9.00;;;;;40.22;17.24;68090.69;5010673;28;45572;-88
2023/06/14 10:43:23;;;;;;;;;9.67;9.67;;;;;40.68;17.83;68131.63;4934636;28;45706;-91
2023/06/14 10:46:28;;;;;;;;;10.33;9.33;;;;;40.81;17.08;68152.22;4926415;28;45436;-86
2023/06/14 10:48:58;;;;;;;;;12.00;9.67;;;;;40.83;17.86;68092.94;4930433;28;45812;-86
2023/06/14 10:51:24;;;;;;;;;12.33;12.33;;;;;40.77;17.38;68053.31;4930313;28;45732;-87
2023/06/14 10:53:51;;;;;;;;;11.67;9.67;;;;;40.56;17.72;68051.25;4928331;28;45870;-83
2023/06/14 10:56:26;;;;;;;;;8.00;8.00;;;;;40.36;16.41;68176.16;4931119;28;45587;-83
2023/06/14 10:58:51;;;;;;;;;12.00;12.00;;;;;40.28;16.41;68270.00;4932770;28;46203;-84
2023/06/14 11:01:32;;;;;;;;;10.33;10.33;;;;;40.24;17.73;68268.13;4940115;28;45542;-84
2023/06/14 11:04:07;;;;;;;;;10.33;9.33;;;;;40.18;16.43;68332.63;4930586;28;46169;-84
2023/06/14 11:06:46;;;;;;;;;11.00;9.00;;;;;40.26;16.95;68372.41;4935195;28;45930;-85
2023/06/14 11:09:41;;;;;;;;;12.33;10.33;;;;;40.18;17.26;68383.09;4926727;28;45843;-85
2023/06/14 11:12:11;;;;;;;;;11.67;10.33;;;;;40.18;17.51;68341.53;4954578;28;45610;-82
2023/06/14 11:14:38;;;;;;;;;12.33;10.67;;;;;39.88;17.30;68474.06;4971757;28;47217;-82
2023/06/14 11:17:04;;;;;;;;;10.00;10.00;;;;;40.31;17.03;68336.63;4957520;28;45480;-82
2023/06/14 11:19:29;;;;;;;;;10.33;10.33;;;;;40.27;16.52;68329.81;4970807;28;45839;-82
2023/06/14 11:21:54;;;;;;;;;10.00;10.00;;;;;40.43;15.75;68339.44;4973654;28;45466;-81
2023/06/14 11:24:20;;;;;;;;;11.00;11.00;;;;;40.39;16.30;68312.66;4972299;28;45535;-82
2023/06/14 11:26:47;;;;;;;;;10.67;10.67;;;;;40.51;17.12;68312.69;4959637;28;45807;-82
2023/06/14 11:29:15;;;;;;;;;12.00;12.00;;;;;40.61;16.51;68278.78;4937622;28;45859;-81
2023/06/14 11:31:45;;;;;;;;;11.00;9.67;;;;;40.64;15.77;68298.88;4953819;28;46140;-81
2023/06/14 11:34:12;;;;;;;;;11.33;9.33;;;;;40.64;16.87;68438.06;4974000;28;45509;-82
2023/06/14 11:36:38;;;;;;;;;11.00;11.00;;;;;40.74;15.72;68335.41;4980075;28;45399;-82
2023/06/14 11:39:06;;;;;;;;;10.33;10.33;;;;;40.77;16.26;68322.28;4981809;28;45438;-82
2023/06/14 11:41:42;;;;;;;;;11.00;9.33;;;;;40.50;16.33;68314.31;4958522;28;46082;-82
2023/06/14 11:44:08;;;;;;;;;14.33;13.33;;;;;40.81;16.20;68340.78;4957224;28;47683;-81
2023/06/14 11:46:34;;;;;;;;;15.00;12.33;;;;;40.62;16.55;68308.22;4966395;28;46055;-85
2023/06/14 11:49:02;;;;;;;;;15.00;15.00;;;;;40.60;16.07;68382.94;4920380;28;45389;-80
2023/06/14 11:51:29;;;;;;;;;10.67;10.67;;;;;40.59;16.16;68392.88;4932117;28;45355;-80
2023/06/14 11:53:54;;;;;;;;;12.67;11.67;;;;;40.51;16.38;68418.03;4934624;28;45428;-82
2023/06/14 11:56:20;;;;;;;;;11.67;8.33;;;;;40.26;16.03;68455.53;4931862;28;45485;-81
2023/06/14 11:58:46;;;;;;;;;13.67;11.67;;;;;40.22;16.75;68523.47;4930766;28;45635;-82
2023/06/14 12:01:17;;;;;;;;;12.67;11.67;;;;;39.92;16.25;68668.63;4936190;28;45747;-84
2023/06/14 12:03:50;;;;;;;;;11.33;11.33;;;;;39.62;16.70;68687.44;4921928;28;46542;-83
2023/06/14 12:06:17;;;;;;;;;11.00;11.00;;;;;39.10;16.81;68719.81;4930846;28;45435;-85
2023/06/14 12:08:45;;;;;;;;;8.33;8.33;;;;;38.78;16.77;68780.41;4938206;28;45435;-84
2023/06/14 12:11:13;;;;;;;;;13.33;11.00;;;;;38.58;17.54;68936.72;4952433;28;45466;-84
2023/06/14 12:13:42;;;;;;;;;11.00;11.00;;;;;38.27;17.83;69005.97;4950061;28;46207;-85
2023/06/14 12:16:11;;;;;;;;;13.00;11.33;;;;;37.99;17.99;69090.28;4935870;28;45458;-84
2023/06/14 12:18:39;;;;;;;;;13.33;11.67;;;;;37.08;18.14;69044.34;4928418;28;45656;-85
2023/06/14 12:21:06;;;;;;;;;15.67;11.00;;;;;37.06;18.44;69143.41;4899343;28;45634;-83
2023/06/14 12:23:48;;;;;;;;;13.33;12.00;;;;;37.11;18.98;69176.88;4915992;28;45438;-85
2023/06/14 12:26:15;;;;;;;;;14.00;14.00;;;;;36.95;19.79;69211.03;4916106;28;45505;-82
2023/06/14 12:28:42;;;;;;;;;16.67;14.00;;;;;36.72;20.07;69262.31;4927712;28;45427;-84
2023/06/14 12:31:08;;;;;;;;;10.33;10.33;;;;;36.73;20.34;69310.34;4954823;28;45631;-83
2023/06/14 12:33:33;;;;;;;;;12.33;12.33;;;;;36.61;19.98;69334.19;4954109;28;46199;-84
2023/06/14 12:35:59;;;;;;;;;14.33;14.33;;;;;36.13;19.47;69417.03;4938406;28;45429;-83
2023/06/14 12:38:24;;;;;;;;;12.67;11.33;;;;;36.03;20.26;69396.94;4917803;28;45885;-83
2023/06/14 12:40:50;;;;;;;;;12.00;12.00;;;;;35.74;20.18;69410.09;4922949;28;45484;-83
2023/06/14 12:43:15;;;;;;;;;12.67;12.67;;;;;35.60;20.89;69416.13;4916354;28;45990;-83
2023/06/14 12:45:40;;;;;;;;;11.00;11.00;;;;;35.71;21.06;69473.19;4971941;28;45385;-83
2023/06/14 12:48:06;;;;;;;;;12.00;10.67;;;;;34.96;20.94;69389.00;4933875;28;45942;-84
2023/06/14 12:50:31;;;;;;;;;13.33;13.33;;;;;35.24;21.92;69477.13;4934268;28;45379;-83
2023/06/14 12:52:56;;;;;;;;;14.33;12.00;;;;;35.19;21.34;69473.97;4934386;28;55363;-82
2023/06/14 12:55:21;;;;;;;;;13.67;13.67;;;;;35.15;21.91;69556.63;4934379;28;50367;-82
2023/06/14 12:57:49;;;;;;;;;11.67;11.67;;;;;35.03;22.04;69518.25;4927367;28;45460;-84
2023/06/14 13:00:15;;;;;;;;;14.67;14.67;;;;;35.09;22.07;69534.16;4916182;28;45449;-83
2023/06/14 13:02:41;;;;;;;;;12.00;12.00;;;;;35.08;21.77;69521.41;4934804;28;45529;-82
2023/06/14 13:05:06;;;;;;;;;12.00;12.00;;;;;35.11;22.28;69538.13;4932951;28;45501;-82
2023/06/14 13:07:32;;;;;;;;;11.33;11.33;;;;;35.12;21.96;69531.66;4936030;28;45613;-82
2023/06/14 13:09:57;;;;;;;;;13.33;12.00;;;;;35.04;20.96;69552.41;4934632;28;45455;-83
2023/06/14 13:12:23;;;;;;;;;13.00;13.00;;;;;34.99;21.35;69541.59;4934417;28;46282;-82
2023/06/14 13:14:49;;;;;;;;;11.67;11.67;;;;;35.08;21.28;69557.75;4934732;28;45672;-82
2023/06/14 13:17:14;;;;;;;;;10.67;10.33;;;;;34.99;21.21;69580.06;4934531;28;45558;-82
2023/06/14 13:19:42;;;;;;;;;14.67;12.00;;;;;34.82;21.14;69562.69;4938700;28;47134;-82
2023/06/14 13:22:08;;;;;;;;;13.00;12.00;;;;;34.87;20.52;69637.31;4925208;28;46401;-82
2023/06/14 13:24:33;;;;;;;;;13.00;13.00;;;;;34.40;20.35;69599.25;4940600;28;45450;-82
2023/06/14 13:26:58;;;;;;;;;11.00;11.00;;;;;34.40;21.41;69544.31;4941073;28;45804;-82
2023/06/14 13:29:24;;;;;;;;;14.00;14.00;;;;;34.63;22.05;69603.94;4918319;28;45679;-82
2023/06/14 13:31:50;;;;;;;;;20.33;17.00;;;;;34.61;22.54;69629.66;4990404;28;45626;-82
2023/06/14 13:34:15;;;;;;;;;13.00;12.67;;;;;34.63;22.02;69588.06;4939220;28;45489;-82
2023/06/14 13:36:41;;;;;;;;;18.00;18.00;;;;;34.52;22.28;69586.00;4924029;28;45456;-83
2023/06/14 13:39:06;;;;;;;;;12.33;12.33;;;;;34.52;21.87;69588.16;4935363;28;45605;-83
2023/06/14 13:41:34;;;;;;;;;17.00;14.33;;;;;34.58;22.21;69568.38;4937396;28;45406;-83
2023/06/14 13:44:00;;;;;;;;;15.00;15.00;;;;;34.39;22.11;69598.63;4939734;28;45430;-83
2023/06/14 13:46:25;;;;;;;;;23.00;20.67;;;;;34.38;23.51;69632.56;4940197;28;45365;-84
2023/06/14 13:48:50;;;;;;;;;19.33;17.00;;;;;34.46;22.35;69600.84;4926359;28;45566;-84
2023/06/14 13:51:18;;;;;;;;;14.00;13.00;;;;;34.41;22.06;69674.56;4946528;28;46023;-86
2023/06/14 13:53:55;;;;;;;;;12.67;12.67;;;;;33.99;21.96;69614.91;4906701;28;45481;-86
2023/06/14 13:56:22;;;;;;;;;16.00;13.67;;;;;34.15;22.22;69685.50;4929165;28;45904;-86
2023/06/14 13:58:47;;;;;;;;;14.67;14.67;;;;;33.91;23.02;69586.22;4935854;28;45477;-86
2023/06/14 14:01:13;;;;;;;;;19.00;16.67;;;;;33.78;22.86;69744.25;4941636;28;48526;-83
2023/06/14 14:03:38;;;;;;;;;23.33;22.33;;;;;34.09;23.37;69703.69;4951348;28;45547;-81
2023/06/14 14:06:04;;;;;;;;;15.00;15.00;;;;;33.90;28.04;69650.88;4916333;28;45353;-81
2023/06/14 14:08:29;;;;;;;;;14.00;12.67;;;;;33.16;28.78;69727.16;4931850;28;45456;-86
2023/06/14 14:10:55;;;;;;;;;15.67;15.67;;;;;32.59;29.66;69773.44;5021685;28;46987;-88
2023/06/14 14:13:21;;;;;;;;;17.00;14.67;;;;;32.97;30.91;69822.97;4939095;28;45554;-87
2023/06/14 14:15:48;;;;;;;;;15.67;14.67;;;;;32.67;30.87;69774.75;4939558;28;45917;-85
2023/06/14 14:18:15;;;;;;;;;16.67;16.67;;;;;32.54;30.25;69835.94;4934774;28;45489;-84
2023/06/14 14:20:40;;;;;;;;;16.33;16.33;;;;;32.36;32.89;69845.78;4940544;28;46566;-85
2023/06/14 14:23:05;;;;;;;;;15.67;15.67;;;;;32.07;34.04;69696.88;4934592;28;45521;-84
2023/06/14 14:25:31;;;;;;;;;15.33;15.33;;;;;32.05;34.46;69688.44;4939836;28;45401;-86
2023/06/14 14:27:56;;;;;;;;;17.00;15.33;;;;;31.90;34.53;69742.91;4928406;28;46206;-86
2023/06/14 14:30:23;;;;;;;;;16.00;15.67;;;;;31.77;35.05;69607.06;4945040;28;45940;-86
2023/06/14 14:32:52;;;;;;;;;16.33;13.67;;;;;31.61;35.37;69591.41;4935792;28;45495;-85
2023/06/14 14:35:18;;;;;;;;;18.00;15.33;;;;;31.13;35.66;69420.75;4907552;28;46014;-86
2023/06/14 14:37:44;;;;;;;;;17.00;15.00;;;;;31.23;36.24;69382.84;4932086;28;45456;-84
2023/06/14 14:40:10;;;;;;;;;17.00;15.33;;;;;31.13;35.66;69369.44;4934195;28;48422;-85
2023/06/14 14:42:36;;;;;;;;;15.33;15.00;;;;;31.26;36.45;69307.75;4936901;28;45529;-88
2023/06/14 14:45:01;;;;;;;;;18.33;16.33;;;;;31.05;36.42;69288.34;4933515;28;45535;-83
2023/06/14 14:47:26;;;;;;;;;17.33;14.00;;;;;31.10;34.63;69371.34;4959126;28;45808;-85
2023/06/14 14:49:52;;;;;;;;;16.00;14.33;;;;;30.83;36.96;69156.38;4967551;28;46168;-86
2023/06/14 14:52:17;;;;;;;;;19.00;18.33;;;;;31.09;36.59;69224.78;4937726;28;45478;-86
2023/06/14 14:54:43;;;;;;;;;18.33;16.67;;;;;31.06;37.33;69111.97;4940799;28;45553;-84
2023/06/14 14:57:08;;;;;;;;;17.00;17.00;;;;;30.98;37.97;68928.31;4924265;28;45454;-85
2023/06/14 14:59:33;;;;;;;;;17.00;14.33;;;;;30.97;36.39;69098.59;4926803;28;45675;-88
2023/06/14 15:01:59;;;;;;;;;15.67;15.33;;;;;30.90;37.81;68965.28;4917843;28;45765;-93
2023/06/14 15:04:25;;;;;;;;;16.33;14.67;;;;;30.50;37.76;68848.34;4945631;28;45458;-89
2023/06/14 15:06:50;;;;;;;;;16.67;16.67;;;;;30.77;38.14;68827.09;4935715;28;45475;-89
2023/06/14 15:09:15;;;;;;;;;17.00;16.33;;;;;30.79;37.98;68837.63;4930535;28;46014;-89
2023/06/14 15:11:43;;;;;;;;;12.67;12.67;;;;;30.77;35.77;69094.69;4931866;28;45473;-88
2023/06/14 15:14:08;;;;;;;;;16.33;13.67;;;;;30.58;36.51;69037.31;4935480;28;45538;-87
2023/06/14 15:16:34;;;;;;;;;16.33;16.33;;;;;30.56;36.67;69108.69;4916931;28;45525;-87
2023/06/14 15:18:59;;;;;;;;;17.33;16.67;;;;;30.78;38.10;68826.13;4928405;28;47289;-86
2023/06/14 15:21:25;;;;;;;;;15.00;15.00;;;;;30.74;38.53;68706.75;4919746;28;45400;-88
2023/06/14 15:23:50;;;;;;;;;17.67;16.00;;;;;30.55;38.72;68640.75;4925290;28;45727;-85
2023/06/14 15:26:16;;;;;;;;;15.67;14.00;;;;;30.64;37.77;68787.81;4935192;28;45534;-85
2023/06/14 15:28:41;;;;;;;;;21.67;17.33;;;;;30.35;38.84;68511.47;4944260;28;45832;-89
2023/06/14 15:31:07;;;;;;;;;15.00;15.00;;;;;30.62;38.85;68581.31;4937607;28;45684;-87
2023/06/14 15:33:33;;;;;;;;;19.33;17.67;;;;;30.62;38.77;68547.97;4936149;28;45486;-86
2023/06/14 15:35:58;;;;;;;;;19.00;16.33;;;;;30.60;38.54;68570.19;4945248;28;45347;-85
2023/06/14 15:38:23;;;;;;;;;15.67;14.00;;;;;30.56;39.25;68494.56;4924689;28;46773;-87
2023/06/14 15:40:49;;;;;;;;;18.33;15.33;;;;;30.59;39.19;68435.88;4934843;28;45322;-87
2023/06/14 15:43:14;;;;;;;;;15.67;14.67;;;;;30.58;36.28;68923.28;4919590;28;45440;-84
2023/06/14 15:45:40;;;;;;;;;14.67;14.67;;;;;30.28;38.98;68392.00;4916021;28;45382;-85
2023/06/14 15:48:06;;;;;;;;;17.33;15.67;;;;;30.45;36.39;68905.22;4932227;28;45370;-81
2023/06/14 15:50:31;;;;;;;;;14.00;12.33;;;;;30.57;39.17;68370.19;4926725;28;45541;-81
2023/06/14 15:52:57;;;;;;;;;15.33;15.00;;;;;30.47;37.56;68638.00;4918891;28;45812;-82
2023/06/14 15:55:22;;;;;;;;;15.00;14.67;;;;;30.47;38.73;68586.16;4925472;28;45599;-87
2023/06/14 15:57:47;;;;;;;;;20.67;18.00;;;;;30.46;38.66;68508.59;4933094;28;46238;-86
2023/06/14 16:00:13;;;;;;;;;19.67;17.00;;;;;30.46;38.27;68603.50;4927093;28;45757;-85
2023/06/14 16:02:39;;;;;;;;;16.00;16.00;;;;;30.45;38.61;68558.66;4935015;28;45520;-86
2023/06/14 16:05:04;;;;;;;;;15.33;14.33;;;;;30.45;39.70;68297.28;4929915;28;45856;-85
2023/06/14 16:07:30;;;;;;;;;18.33;15.33;;;;;30.14;39.66;68165.63;4932900;28;47673;-84
2023/06/14 16:09:55;;;;;;;;;16.67;15.33;;;;;30.38;39.87;68185.44;4930093;28;45458;-85
2023/06/14 16:12:21;;;;;;;;;19.67;18.33;;;;;30.38;38.33;68386.75;4929897;28;45614;-85
2023/06/14 16:14:47;;;;;;;;;18.33;17.00;;;;;30.04;39.13;68348.13;4927266;28;45738;-85
2023/06/14 16:17:12;;;;;;;;;16.67;16.67;;;;;30.34;40.19;68071.06;4920144;28;46144;-86
2023/06/14 16:19:39;;;;;;;;;17.00;15.67;;;;;30.38;40.19;68092.09;4931791;28;45537;-87